sensor_id;sensor_type;location;lat;lon;timestamp;P1;durP1;ratioP1;P2;durP2;ratioP2
66087;SDS011;52872;52.994;6.940;2023-04-24T00:01:40;1.85;;;0.80;;
66087;SDS011;52872;52.994;6.940;2023-04-24T00:04:09;0.60;;;0.60;;
66087;SDS011;52872;52.994;6.940;2023-04-24T00:06:37;0.88;;;0.88;;
66087;SDS011;52872;52.994;6.940;2023-04-24T00:09:04;1.95;;;0.90;;
66087;SDS011;52872;52.994;6.940;2023-04-24T00:11:31;1.55;;;1.20;;
66087;SDS011;52872;52.994;6.940;2023-04-24T00:13:58;1.30;;;1.30;;
66087;SDS011;52872;52.994;6.940;2023-04-24T00:16:25;1.20;;;1.20;;
66087;SDS011;52872;52.994;6.940;2023-04-24T00:18:52;1.30;;;1.20;;
66087;SDS011;52872;52.994;6.940;2023-04-24T00:21:22;1.60;;;1.50;;
66087;SDS011;52872;52.994;6.940;2023-04-24T00:23:52;2.25;;;1.60;;
66087;SDS011;52872;52.994;6.940;2023-04-24T00:26:19;2.00;;;1.65;;
66087;SDS011;52872;52.994;6.940;2023-04-24T00:28:46;1.70;;;1.60;;
66087;SDS011;52872;52.994;6.940;2023-04-24T00:31:13;2.15;;;1.80;;
66087;SDS011;52872;52.994;6.940;2023-04-24T00:33:40;2.53;;;2.22;;
66087;SDS011;52872;52.994;6.940;2023-04-24T00:36:07;1.95;;;1.85;;
66087;SDS011;52872;52.994;6.940;2023-04-24T00:38:34;2.40;;;2.30;;
66087;SDS011;52872;52.994;6.940;2023-04-24T00:41:02;2.50;;;2.30;;
66087;SDS011;52872;52.994;6.940;2023-04-24T00:43:29;2.78;;;2.58;;
66087;SDS011;52872;52.994;6.940;2023-04-24T00:45:56;2.65;;;2.45;;
66087;SDS011;52872;52.994;6.940;2023-04-24T00:48:23;2.83;;;2.63;;
66087;SDS011;52872;52.994;6.940;2023-04-24T00:50:51;3.38;;;3.08;;
66087;SDS011;52872;52.994;6.940;2023-04-24T00:53:18;3.72;;;3.42;;
66087;SDS011;52872;52.994;6.940;2023-04-24T00:55:45;3.50;;;3.20;;
66087;SDS011;52872;52.994;6.940;2023-04-24T00:58:13;3.80;;;3.50;;
66087;SDS011;52872;52.994;6.940;2023-04-24T01:00:40;4.00;;;3.70;;
66087;SDS011;52872;52.994;6.940;2023-04-24T01:03:07;4.25;;;3.95;;
66087;SDS011;52872;52.994;6.940;2023-04-24T01:05:35;4.00;;;3.70;;
66087;SDS011;52872;52.994;6.940;2023-04-24T01:08:02;4.60;;;4.10;;
66087;SDS011;52872;52.994;6.940;2023-04-24T01:10:29;4.32;;;3.92;;
66087;SDS011;52872;52.994;6.940;2023-04-24T01:12:59;3.92;;;3.63;;
66087;SDS011;52872;52.994;6.940;2023-04-24T01:15:26;3.97;;;3.58;;
66087;SDS011;52872;52.994;6.940;2023-04-24T01:17:53;4.35;;;4.00;;
66087;SDS011;52872;52.994;6.940;2023-04-24T01:20:20;3.28;;;3.08;;
66087;SDS011;52872;52.994;6.940;2023-04-24T01:22:48;3.50;;;3.30;;
66087;SDS011;52872;52.994;6.940;2023-04-24T01:25:15;2.70;;;2.50;;
66087;SDS011;52872;52.994;6.940;2023-04-24T01:27:42;3.83;;;2.63;;
66087;SDS011;52872;52.994;6.940;2023-04-24T01:30:10;2.70;;;2.50;;
66087;SDS011;52872;52.994;6.940;2023-04-24T01:32:38;2.97;;;2.78;;
66087;SDS011;52872;52.994;6.940;2023-04-24T01:35:06;2.63;;;2.42;;
66087;SDS011;52872;52.994;6.940;2023-04-24T01:37:34;2.53;;;2.33;;
66087;SDS011;52872;52.994;6.940;2023-04-24T01:40:06;2.53;;;2.40;;
66087;SDS011;52872;52.994;6.940;2023-04-24T01:42:34;2.78;;;2.60;;
66087;SDS011;52872;52.994;6.940;2023-04-24T01:45:01;3.15;;;2.70;;
66087;SDS011;52872;52.994;6.940;2023-04-24T01:47:30;2.90;;;2.70;;
66087;SDS011;52872;52.994;6.940;2023-04-24T01:49:57;3.10;;;2.90;;
66087;SDS011;52872;52.994;6.940;2023-04-24T01:52:25;3.58;;;3.38;;
66087;SDS011;52872;52.994;6.940;2023-04-24T01:54:52;4.05;;;3.75;;
66087;SDS011;52872;52.994;6.940;2023-04-24T01:57:19;3.50;;;3.20;;
66087;SDS011;52872;52.994;6.940;2023-04-24T01:59:46;3.85;;;3.55;;
66087;SDS011;52872;52.994;6.940;2023-04-24T02:02:13;3.80;;;3.60;;
66087;SDS011;52872;52.994;6.940;2023-04-24T02:04:41;4.10;;;3.83;;
66087;SDS011;52872;52.994;6.940;2023-04-24T02:07:07;4.50;;;4.20;;
66087;SDS011;52872;52.994;6.940;2023-04-24T02:09:34;5.10;;;4.80;;
66087;SDS011;52872;52.994;6.940;2023-04-24T02:12:01;4.80;;;4.50;;
66087;SDS011;52872;52.994;6.940;2023-04-24T02:14:28;4.63;;;4.32;;
66087;SDS011;52872;52.994;6.940;2023-04-24T02:16:55;4.43;;;4.13;;
66087;SDS011;52872;52.994;6.940;2023-04-24T02:19:22;5.15;;;4.85;;
66087;SDS011;52872;52.994;6.940;2023-04-24T02:21:49;4.68;;;4.38;;
66087;SDS011;52872;52.994;6.940;2023-04-24T02:24:16;5.15;;;4.75;;
66087;SDS011;52872;52.994;6.940;2023-04-24T02:26:43;4.85;;;4.50;;
66087;SDS011;52872;52.994;6.940;2023-04-24T02:29:10;4.22;;;3.92;;
66087;SDS011;52872;52.994;6.940;2023-04-24T02:31:37;5.32;;;4.93;;
66087;SDS011;52872;52.994;6.940;2023-04-24T02:34:05;4.72;;;4.43;;
66087;SDS011;52872;52.994;6.940;2023-04-24T02:36:32;5.22;;;4.82;;
66087;SDS011;52872;52.994;6.940;2023-04-24T02:38:58;5.20;;;4.70;;
66087;SDS011;52872;52.994;6.940;2023-04-24T02:41:27;4.57;;;4.28;;
66087;SDS011;52872;52.994;6.940;2023-04-24T02:43:58;5.32;;;4.93;;
66087;SDS011;52872;52.994;6.940;2023-04-24T02:46:25;5.00;;;4.60;;
66087;SDS011;52872;52.994;6.940;2023-04-24T02:48:52;5.65;;;5.25;;
66087;SDS011;52872;52.994;6.940;2023-04-24T02:51:19;5.10;;;4.70;;
66087;SDS011;52872;52.994;6.940;2023-04-24T02:53:46;5.30;;;4.90;;
66087;SDS011;52872;52.994;6.940;2023-04-24T02:56:13;5.82;;;5.43;;
66087;SDS011;52872;52.994;6.940;2023-04-24T02:58:40;5.90;;;5.40;;
66087;SDS011;52872;52.994;6.940;2023-04-24T03:01:08;6.00;;;5.50;;
66087;SDS011;52872;52.994;6.940;2023-04-24T03:03:38;6.00;;;5.50;;
66087;SDS011;52872;52.994;6.940;2023-04-24T03:06:06;6.57;;;5.97;;
66087;SDS011;52872;52.994;6.940;2023-04-24T03:08:34;5.75;;;5.25;;
66087;SDS011;52872;52.994;6.940;2023-04-24T03:11:01;6.60;;;5.78;;
66087;SDS011;52872;52.994;6.940;2023-04-24T03:13:28;5.93;;;5.43;;
66087;SDS011;52872;52.994;6.940;2023-04-24T03:15:55;5.68;;;5.28;;
66087;SDS011;52872;52.994;6.940;2023-04-24T03:18:22;6.32;;;5.72;;
66087;SDS011;52872;52.994;6.940;2023-04-24T03:20:51;6.97;;;6.28;;
66087;SDS011;52872;52.994;6.940;2023-04-24T03:23:18;6.82;;;6.32;;
66087;SDS011;52872;52.994;6.940;2023-04-24T03:25:45;6.45;;;5.95;;
66087;SDS011;52872;52.994;6.940;2023-04-24T03:28:12;6.63;;;6.03;;
66087;SDS011;52872;52.994;6.940;2023-04-24T03:30:43;6.40;;;5.90;;
66087;SDS011;52872;52.994;6.940;2023-04-24T03:33:10;6.57;;;6.03;;
66087;SDS011;52872;52.994;6.940;2023-04-24T03:35:45;6.55;;;6.05;;
66087;SDS011;52872;52.994;6.940;2023-04-24T03:38:12;7.85;;;5.85;;
66087;SDS011;52872;52.994;6.940;2023-04-24T03:40:42;6.85;;;6.25;;
66087;SDS011;52872;52.994;6.940;2023-04-24T03:43:22;6.22;;;5.72;;
66087;SDS011;52872;52.994;6.940;2023-04-24T03:45:49;6.85;;;6.35;;
66087;SDS011;52872;52.994;6.940;2023-04-24T03:48:18;6.55;;;6.05;;
66087;SDS011;52872;52.994;6.940;2023-04-24T03:50:46;5.60;;;5.20;;
66087;SDS011;52872;52.994;6.940;2023-04-24T03:53:13;6.45;;;5.43;;
66087;SDS011;52872;52.994;6.940;2023-04-24T03:55:42;5.53;;;5.13;;
66087;SDS011;52872;52.994;6.940;2023-04-24T03:58:09;6.32;;;5.90;;
66087;SDS011;52872;52.994;6.940;2023-04-24T04:00:37;6.30;;;5.80;;
66087;SDS011;52872;52.994;6.940;2023-04-24T04:03:42;5.95;;;5.47;;
66087;SDS011;52872;52.994;6.940;2023-04-24T04:06:09;6.05;;;5.45;;
66087;SDS011;52872;52.994;6.940;2023-04-24T04:08:37;6.03;;;5.43;;
66087;SDS011;52872;52.994;6.940;2023-04-24T04:11:04;5.70;;;5.20;;
66087;SDS011;52872;52.994;6.940;2023-04-24T04:13:31;6.00;;;5.60;;
66087;SDS011;52872;52.994;6.940;2023-04-24T04:15:58;5.78;;;5.35;;
66087;SDS011;52872;52.994;6.940;2023-04-24T04:18:26;6.10;;;5.55;;
66087;SDS011;52872;52.994;6.940;2023-04-24T04:20:52;6.18;;;5.68;;
66087;SDS011;52872;52.994;6.940;2023-04-24T04:23:19;6.18;;;5.68;;
66087;SDS011;52872;52.994;6.940;2023-04-24T04:26:03;6.57;;;5.20;;
66087;SDS011;52872;52.994;6.940;2023-04-24T04:28:45;5.68;;;5.18;;
66087;SDS011;52872;52.994;6.940;2023-04-24T04:31:14;6.32;;;5.63;;
66087;SDS011;52872;52.994;6.940;2023-04-24T04:33:41;6.88;;;6.28;;
66087;SDS011;52872;52.994;6.940;2023-04-24T04:36:08;6.43;;;5.82;;
66087;SDS011;52872;52.994;6.940;2023-04-24T04:38:40;6.43;;;5.93;;
66087;SDS011;52872;52.994;6.940;2023-04-24T04:41:22;6.15;;;5.65;;
66087;SDS011;52872;52.994;6.940;2023-04-24T04:43:50;7.05;;;6.45;;
66087;SDS011;52872;52.994;6.940;2023-04-24T04:46:19;5.97;;;5.47;;
66087;SDS011;52872;52.994;6.940;2023-04-24T04:48:56;7.10;;;6.40;;
66087;SDS011;52872;52.994;6.940;2023-04-24T04:51:23;5.88;;;5.45;;
66087;SDS011;52872;52.994;6.940;2023-04-24T04:53:50;6.70;;;6.10;;
66087;SDS011;52872;52.994;6.940;2023-04-24T04:56:17;6.50;;;5.90;;
66087;SDS011;52872;52.994;6.940;2023-04-24T04:58:45;6.22;;;5.72;;
66087;SDS011;52872;52.994;6.940;2023-04-24T05:01:14;5.90;;;5.40;;
66087;SDS011;52872;52.994;6.940;2023-04-24T05:03:45;5.80;;;5.30;;
66087;SDS011;52872;52.994;6.940;2023-04-24T05:06:14;6.22;;;5.40;;
66087;SDS011;52872;52.994;6.940;2023-04-24T05:08:42;5.32;;;4.93;;
66087;SDS011;52872;52.994;6.940;2023-04-24T05:11:25;6.25;;;5.65;;
66087;SDS011;52872;52.994;6.940;2023-04-24T05:13:54;6.55;;;5.75;;
66087;SDS011;52872;52.994;6.940;2023-04-24T05:16:30;5.88;;;5.30;;
66087;SDS011;52872;52.994;6.940;2023-04-24T05:18:57;5.55;;;5.05;;
66087;SDS011;52872;52.994;6.940;2023-04-24T05:21:29;6.50;;;5.93;;
66087;SDS011;52872;52.994;6.940;2023-04-24T05:23:57;5.60;;;5.10;;
66087;SDS011;52872;52.994;6.940;2023-04-24T05:26:40;6.90;;;5.60;;
66087;SDS011;52872;52.994;6.940;2023-04-24T05:29:08;5.82;;;5.32;;
66087;SDS011;52872;52.994;6.940;2023-04-24T05:31:35;6.35;;;5.75;;
66087;SDS011;52872;52.994;6.940;2023-04-24T05:34:02;6.03;;;5.53;;
66087;SDS011;52872;52.994;6.940;2023-04-24T05:36:29;5.85;;;5.18;;
66087;SDS011;52872;52.994;6.940;2023-04-24T05:38:57;6.43;;;5.45;;
66087;SDS011;52872;52.994;6.940;2023-04-24T05:41:24;5.82;;;5.25;;
66087;SDS011;52872;52.994;6.940;2023-04-24T05:43:51;6.35;;;5.72;;
66087;SDS011;52872;52.994;6.940;2023-04-24T05:46:19;6.70;;;5.93;;
66087;SDS011;52872;52.994;6.940;2023-04-24T05:48:46;6.75;;;6.15;;
66087;SDS011;52872;52.994;6.940;2023-04-24T05:51:13;7.38;;;5.97;;
66087;SDS011;52872;52.994;6.940;2023-04-24T05:53:41;6.30;;;5.70;;
66087;SDS011;52872;52.994;6.940;2023-04-24T05:56:08;6.10;;;5.50;;
66087;SDS011;52872;52.994;6.940;2023-04-24T05:58:35;6.00;;;5.50;;
66087;SDS011;52872;52.994;6.940;2023-04-24T06:01:04;5.57;;;5.07;;
66087;SDS011;52872;52.994;6.940;2023-04-24T06:03:32;6.35;;;5.68;;
66087;SDS011;52872;52.994;6.940;2023-04-24T06:06:02;5.75;;;5.15;;
66087;SDS011;52872;52.994;6.940;2023-04-24T06:08:29;6.07;;;5.47;;
66087;SDS011;52872;52.994;6.940;2023-04-24T06:10:56;7.30;;;5.32;;
66087;SDS011;52872;52.994;6.940;2023-04-24T06:13:24;5.97;;;4.82;;
66087;SDS011;52872;52.994;6.940;2023-04-24T06:16:13;6.07;;;4.88;;
66087;SDS011;52872;52.994;6.940;2023-04-24T06:18:45;5.47;;;4.97;;
66087;SDS011;52872;52.994;6.940;2023-04-24T06:21:13;5.57;;;5.07;;
66087;SDS011;52872;52.994;6.940;2023-04-24T06:23:41;4.50;;;4.10;;
66087;SDS011;52872;52.994;6.940;2023-04-24T06:26:08;4.70;;;4.30;;
66087;SDS011;52872;52.994;6.940;2023-04-24T06:28:37;4.40;;;4.10;;
66087;SDS011;52872;52.994;6.940;2023-04-24T06:31:04;3.85;;;3.55;;
66087;SDS011;52872;52.994;6.940;2023-04-24T06:33:31;4.85;;;4.20;;
66087;SDS011;52872;52.994;6.940;2023-04-24T06:35:58;3.80;;;3.50;;
66087;SDS011;52872;52.994;6.940;2023-04-24T06:38:25;3.80;;;3.40;;
66087;SDS011;52872;52.994;6.940;2023-04-24T06:40:52;3.67;;;3.38;;
66087;SDS011;52872;52.994;6.940;2023-04-24T06:43:19;4.47;;;4.07;;
66087;SDS011;52872;52.994;6.940;2023-04-24T06:45:46;3.47;;;3.17;;
66087;SDS011;52872;52.994;6.940;2023-04-24T06:48:13;3.15;;;2.85;;
66087;SDS011;52872;52.994;6.940;2023-04-24T06:50:40;3.72;;;3.38;;
66087;SDS011;52872;52.994;6.940;2023-04-24T06:53:07;3.47;;;3.17;;
66087;SDS011;52872;52.994;6.940;2023-04-24T06:55:35;4.55;;;3.40;;
66087;SDS011;52872;52.994;6.940;2023-04-24T06:58:02;3.17;;;2.97;;
66087;SDS011;52872;52.994;6.940;2023-04-24T07:00:29;3.20;;;2.90;;
66087;SDS011;52872;52.994;6.940;2023-04-24T07:02:56;3.83;;;3.53;;
66087;SDS011;52872;52.994;6.940;2023-04-24T07:05:23;3.17;;;2.92;;
66087;SDS011;52872;52.994;6.940;2023-04-24T07:07:50;3.45;;;3.15;;
66087;SDS011;52872;52.994;6.940;2023-04-24T07:10:18;2.95;;;2.75;;
66087;SDS011;52872;52.994;6.940;2023-04-24T07:12:45;3.28;;;3.05;;
66087;SDS011;52872;52.994;6.940;2023-04-24T07:15:12;2.65;;;2.45;;
66087;SDS011;52872;52.994;6.940;2023-04-24T07:17:39;3.25;;;3.00;;
66087;SDS011;52872;52.994;6.940;2023-04-24T07:20:10;3.10;;;2.90;;
66087;SDS011;52872;52.994;6.940;2023-04-24T07:22:37;4.15;;;3.33;;
66087;SDS011;52872;52.994;6.940;2023-04-24T07:25:05;3.15;;;2.85;;
66087;SDS011;52872;52.994;6.940;2023-04-24T07:27:33;3.10;;;2.90;;
66087;SDS011;52872;52.994;6.940;2023-04-24T07:30:01;2.97;;;2.67;;
66087;SDS011;52872;52.994;6.940;2023-04-24T07:32:30;2.72;;;2.53;;
66087;SDS011;52872;52.994;6.940;2023-04-24T07:34:57;2.90;;;2.70;;
66087;SDS011;52872;52.994;6.940;2023-04-24T07:37:24;2.45;;;2.25;;
66087;SDS011;52872;52.994;6.940;2023-04-24T07:39:51;2.17;;;1.98;;
66087;SDS011;52872;52.994;6.940;2023-04-24T07:42:18;2.45;;;2.25;;
66087;SDS011;52872;52.994;6.940;2023-04-24T07:44:45;2.08;;;1.98;;
66087;SDS011;52872;52.994;6.940;2023-04-24T07:47:13;2.33;;;2.22;;
66087;SDS011;52872;52.994;6.940;2023-04-24T07:49:44;2.83;;;2.63;;
66087;SDS011;52872;52.994;6.940;2023-04-24T07:52:11;3.38;;;3.00;;
66087;SDS011;52872;52.994;6.940;2023-04-24T07:54:38;3.10;;;2.85;;
66087;SDS011;52872;52.994;6.940;2023-04-24T07:57:05;3.47;;;3.25;;
66087;SDS011;52872;52.994;6.940;2023-04-24T07:59:33;4.35;;;3.95;;
66087;SDS011;52872;52.994;6.940;2023-04-24T08:02:00;4.03;;;3.45;;
66087;SDS011;52872;52.994;6.940;2023-04-24T08:04:28;4.60;;;3.55;;
66087;SDS011;52872;52.994;6.940;2023-04-24T08:06:55;4.93;;;3.42;;
66087;SDS011;52872;52.994;6.940;2023-04-24T08:09:22;2.83;;;2.45;;
66087;SDS011;52872;52.994;6.940;2023-04-24T08:11:49;1.95;;;1.85;;
66087;SDS011;52872;52.994;6.940;2023-04-24T08:14:16;1.67;;;1.58;;
66087;SDS011;52872;52.994;6.940;2023-04-24T08:16:42;2.13;;;1.42;;
66087;SDS011;52872;52.994;6.940;2023-04-24T08:19:09;1.98;;;1.88;;
66087;SDS011;52872;52.994;6.940;2023-04-24T08:21:36;1.60;;;1.50;;
66087;SDS011;52872;52.994;6.940;2023-04-24T08:24:03;2.03;;;1.92;;
66087;SDS011;52872;52.994;6.940;2023-04-24T08:26:33;2.80;;;1.77;;
66087;SDS011;52872;52.994;6.940;2023-04-24T08:29:00;4.18;;;2.22;;
66087;SDS011;52872;52.994;6.940;2023-04-24T08:31:27;4.40;;;2.08;;
66087;SDS011;52872;52.994;6.940;2023-04-24T08:33:54;3.00;;;2.30;;
66087;SDS011;52872;52.994;6.940;2023-04-24T08:36:21;4.55;;;2.40;;
66087;SDS011;52872;52.994;6.940;2023-04-24T08:38:53;4.93;;;2.80;;
66087;SDS011;52872;52.994;6.940;2023-04-24T08:41:20;2.75;;;2.55;;
66087;SDS011;52872;52.994;6.940;2023-04-24T08:43:49;4.35;;;2.38;;
66087;SDS011;52872;52.994;6.940;2023-04-24T08:46:17;2.60;;;2.10;;
66087;SDS011;52872;52.994;6.940;2023-04-24T08:48:46;2.78;;;2.17;;
66087;SDS011;52872;52.994;6.940;2023-04-24T08:51:15;4.53;;;2.78;;
66087;SDS011;52872;52.994;6.940;2023-04-24T08:53:43;4.72;;;2.45;;
66087;SDS011;52872;52.994;6.940;2023-04-24T08:56:12;5.13;;;3.70;;
66087;SDS011;52872;52.994;6.940;2023-04-24T08:58:39;7.30;;;5.25;;
66087;SDS011;52872;52.994;6.940;2023-04-24T09:01:07;9.63;;;4.65;;
66087;SDS011;52872;52.994;6.940;2023-04-24T09:03:35;9.82;;;6.03;;
66087;SDS011;52872;52.994;6.940;2023-04-24T09:06:03;8.57;;;6.05;;
66087;SDS011;52872;52.994;6.940;2023-04-24T09:08:32;10.57;;;7.35;;
66087;SDS011;52872;52.994;6.940;2023-04-24T09:10:59;13.65;;;7.75;;
66087;SDS011;52872;52.994;6.940;2023-04-24T09:13:29;11.07;;;8.23;;
66087;SDS011;52872;52.994;6.940;2023-04-24T09:15:58;17.05;;;10.50;;
66087;SDS011;52872;52.994;6.940;2023-04-24T09:18:26;15.30;;;10.20;;
66087;SDS011;52872;52.994;6.940;2023-04-24T09:21:00;19.08;;;11.90;;
66087;SDS011;52872;52.994;6.940;2023-04-24T09:23:29;13.82;;;9.68;;
66087;SDS011;52872;52.994;6.940;2023-04-24T09:25:58;19.40;;;11.05;;
66087;SDS011;52872;52.994;6.940;2023-04-24T09:28:30;11.00;;;8.45;;
66087;SDS011;52872;52.994;6.940;2023-04-24T09:33:31;15.48;;;10.75;;
66087;SDS011;52872;52.994;6.940;2023-04-24T09:35:59;14.52;;;10.30;;
66087;SDS011;52872;52.994;6.940;2023-04-24T09:38:33;14.32;;;9.52;;
66087;SDS011;52872;52.994;6.940;2023-04-24T09:41:06;13.18;;;10.23;;
66087;SDS011;52872;52.994;6.940;2023-04-24T09:43:35;20.77;;;13.13;;
66087;SDS011;52872;52.994;6.940;2023-04-24T09:46:06;17.25;;;10.95;;
66087;SDS011;52872;52.994;6.940;2023-04-24T09:48:35;19.07;;;12.37;;
66087;SDS011;52872;52.994;6.940;2023-04-24T09:51:04;15.68;;;11.25;;
66087;SDS011;52872;52.994;6.940;2023-04-24T09:53:37;21.38;;;10.57;;
66087;SDS011;52872;52.994;6.940;2023-04-24T09:56:09;13.07;;;10.23;;
66087;SDS011;52872;52.994;6.940;2023-04-24T09:58:38;16.52;;;11.60;;
66087;SDS011;52872;52.994;6.940;2023-04-24T10:01:05;17.67;;;11.25;;
66087;SDS011;52872;52.994;6.940;2023-04-24T10:03:33;16.65;;;12.45;;
66087;SDS011;52872;52.994;6.940;2023-04-24T10:06:01;18.52;;;11.13;;
66087;SDS011;52872;52.994;6.940;2023-04-24T10:08:35;15.07;;;12.25;;
66087;SDS011;52872;52.994;6.940;2023-04-24T10:11:03;13.40;;;10.80;;
66087;SDS011;52872;52.994;6.940;2023-04-24T10:13:31;12.20;;;9.68;;
66087;SDS011;52872;52.994;6.940;2023-04-24T10:15:59;15.85;;;9.48;;
66087;SDS011;52872;52.994;6.940;2023-04-24T10:18:27;15.00;;;10.15;;
66087;SDS011;52872;52.994;6.940;2023-04-24T10:20:56;13.52;;;9.50;;
66087;SDS011;52872;52.994;6.940;2023-04-24T10:23:24;13.55;;;9.40;;
66087;SDS011;52872;52.994;6.940;2023-04-24T10:25:52;14.02;;;8.88;;
66087;SDS011;52872;52.994;6.940;2023-04-24T10:28:20;15.18;;;9.02;;
66087;SDS011;52872;52.994;6.940;2023-04-24T10:30:48;12.52;;;8.05;;
66087;SDS011;52872;52.994;6.940;2023-04-24T10:33:16;8.93;;;6.90;;
66087;SDS011;52872;52.994;6.940;2023-04-24T10:35:44;11.13;;;7.80;;
66087;SDS011;52872;52.994;6.940;2023-04-24T10:38:21;25.25;;;8.27;;
66087;SDS011;52872;52.994;6.940;2023-04-24T10:40:51;15.75;;;7.47;;
66087;SDS011;52872;52.994;6.940;2023-04-24T10:43:18;11.82;;;8.30;;
66087;SDS011;52872;52.994;6.940;2023-04-24T10:46:04;8.77;;;7.35;;
66087;SDS011;52872;52.994;6.940;2023-04-24T10:48:33;10.13;;;7.03;;
66087;SDS011;52872;52.994;6.940;2023-04-24T10:51:00;12.13;;;7.00;;
66087;SDS011;52872;52.994;6.940;2023-04-24T10:53:28;8.90;;;5.10;;
66087;SDS011;52872;52.994;6.940;2023-04-24T10:58:23;8.73;;;5.40;;
66087;SDS011;52872;52.994;6.940;2023-04-24T11:01:01;11.75;;;5.43;;
66087;SDS011;52872;52.994;6.940;2023-04-24T11:03:29;9.77;;;5.38;;
66087;SDS011;52872;52.994;6.940;2023-04-24T11:11:19;10.45;;;5.10;;
66087;SDS011;52872;52.994;6.940;2023-04-24T11:16:21;9.13;;;4.45;;
66087;SDS011;52872;52.994;6.940;2023-04-24T11:19:08;7.97;;;4.18;;
66087;SDS011;52872;52.994;6.940;2023-04-24T11:21:48;9.40;;;4.50;;
66087;SDS011;52872;52.994;6.940;2023-04-24T11:26:55;5.65;;;3.20;;
66087;SDS011;52872;52.994;6.940;2023-04-24T11:29:42;3.83;;;3.05;;
66087;SDS011;52872;52.994;6.940;2023-04-24T11:32:15;3.67;;;2.60;;
66087;SDS011;52872;52.994;6.940;2023-04-24T11:34:50;5.75;;;2.90;;
66087;SDS011;52872;52.994;6.940;2023-04-24T11:37:50;5.82;;;2.78;;
66087;SDS011;52872;52.994;6.940;2023-04-24T11:40:19;6.60;;;2.30;;
66087;SDS011;52872;52.994;6.940;2023-04-24T11:45:23;8.00;;;2.00;;
66087;SDS011;52872;52.994;6.940;2023-04-24T11:47:51;6.18;;;2.50;;
66087;SDS011;52872;52.994;6.940;2023-04-24T11:50:19;6.03;;;2.33;;
66087;SDS011;52872;52.994;6.940;2023-04-24T11:52:48;5.05;;;2.30;;
66087;SDS011;52872;52.994;6.940;2023-04-24T11:57:47;6.10;;;2.85;;
66087;SDS011;52872;52.994;6.940;2023-04-24T12:00:16;5.72;;;2.30;;
66087;SDS011;52872;52.994;6.940;2023-04-24T12:02:45;5.57;;;2.38;;
66087;SDS011;52872;52.994;6.940;2023-04-24T12:05:21;5.05;;;2.03;;
66087;SDS011;52872;52.994;6.940;2023-04-24T12:07:52;5.13;;;2.53;;
66087;SDS011;52872;52.994;6.940;2023-04-24T12:10:20;5.75;;;2.10;;
66087;SDS011;52872;52.994;6.940;2023-04-24T12:12:51;6.25;;;2.42;;
66087;SDS011;52872;52.994;6.940;2023-04-24T12:15:19;4.95;;;2.47;;
66087;SDS011;52872;52.994;6.940;2023-04-24T12:17:47;8.63;;;3.25;;
66087;SDS011;52872;52.994;6.940;2023-04-24T12:20:14;4.70;;;2.10;;
66087;SDS011;52872;52.994;6.940;2023-04-24T12:25:15;4.90;;;3.00;;
66087;SDS011;52872;52.994;6.940;2023-04-24T12:27:44;5.00;;;2.55;;
66087;SDS011;52872;52.994;6.940;2023-04-24T12:30:13;6.80;;;2.40;;
66087;SDS011;52872;52.994;6.940;2023-04-24T12:32:42;3.60;;;2.00;;
66087;SDS011;52872;52.994;6.940;2023-04-24T12:35:18;5.40;;;2.05;;
66087;SDS011;52872;52.994;6.940;2023-04-24T12:37:47;5.95;;;2.20;;
66087;SDS011;52872;52.994;6.940;2023-04-24T12:40:14;7.45;;;2.10;;
66087;SDS011;52872;52.994;6.940;2023-04-24T12:42:43;3.38;;;1.60;;
66087;SDS011;52872;52.994;6.940;2023-04-24T12:45:12;4.20;;;1.60;;
66087;SDS011;52872;52.994;6.940;2023-04-24T12:47:40;4.03;;;1.73;;
66087;SDS011;52872;52.994;6.940;2023-04-24T12:50:08;6.18;;;2.00;;
66087;SDS011;52872;52.994;6.940;2023-04-24T12:52:37;4.00;;;2.03;;
66087;SDS011;52872;52.994;6.940;2023-04-24T12:55:05;3.70;;;1.92;;
66087;SDS011;52872;52.994;6.940;2023-04-24T12:57:37;5.80;;;1.80;;
66087;SDS011;52872;52.994;6.940;2023-04-24T13:00:05;4.35;;;2.00;;
66087;SDS011;52872;52.994;6.940;2023-04-24T13:02:34;4.35;;;2.00;;
66087;SDS011;52872;52.994;6.940;2023-04-24T13:05:01;3.67;;;2.00;;
66087;SDS011;52872;52.994;6.940;2023-04-24T13:07:29;5.07;;;2.10;;
66087;SDS011;52872;52.994;6.940;2023-04-24T13:09:56;6.75;;;2.20;;
66087;SDS011;52872;52.994;6.940;2023-04-24T13:12:24;3.47;;;1.85;;
66087;SDS011;52872;52.994;6.940;2023-04-24T13:14:52;3.35;;;2.15;;
66087;SDS011;52872;52.994;6.940;2023-04-24T13:17:19;5.93;;;1.85;;
66087;SDS011;52872;52.994;6.940;2023-04-24T13:19:48;4.43;;;2.05;;
66087;SDS011;52872;52.994;6.940;2023-04-24T13:22:16;4.45;;;2.03;;
66087;SDS011;52872;52.994;6.940;2023-04-24T13:24:47;3.10;;;1.80;;
66087;SDS011;52872;52.994;6.940;2023-04-24T13:27:17;4.60;;;1.70;;
66087;SDS011;52872;52.994;6.940;2023-04-24T13:29:44;4.00;;;1.60;;
66087;SDS011;52872;52.994;6.940;2023-04-24T13:32:12;5.53;;;1.90;;
66087;SDS011;52872;52.994;6.940;2023-04-24T13:34:39;4.93;;;1.70;;
66087;SDS011;52872;52.994;6.940;2023-04-24T13:37:06;3.15;;;1.55;;
66087;SDS011;52872;52.994;6.940;2023-04-24T13:39:34;5.15;;;2.13;;
66087;SDS011;52872;52.994;6.940;2023-04-24T13:42:02;5.95;;;2.28;;
66087;SDS011;52872;52.994;6.940;2023-04-24T13:44:30;3.45;;;1.80;;
66087;SDS011;52872;52.994;6.940;2023-04-24T13:46:57;6.65;;;2.10;;
66087;SDS011;52872;52.994;6.940;2023-04-24T13:49:25;4.15;;;1.65;;
66087;SDS011;52872;52.994;6.940;2023-04-24T13:51:52;3.45;;;1.58;;
66087;SDS011;52872;52.994;6.940;2023-04-24T13:54:21;4.70;;;1.70;;
66087;SDS011;52872;52.994;6.940;2023-04-24T13:56:50;5.05;;;1.50;;
66087;SDS011;52872;52.994;6.940;2023-04-24T13:59:19;6.60;;;2.22;;
66087;SDS011;52872;52.994;6.940;2023-04-24T14:01:47;5.15;;;1.33;;
66087;SDS011;52872;52.994;6.940;2023-04-24T14:04:14;3.10;;;1.20;;
66087;SDS011;52872;52.994;6.940;2023-04-24T14:06:42;3.05;;;1.00;;
66087;SDS011;52872;52.994;6.940;2023-04-24T14:09:09;2.63;;;1.40;;
66087;SDS011;52872;52.994;6.940;2023-04-24T14:11:36;2.35;;;1.20;;
66087;SDS011;52872;52.994;6.940;2023-04-24T14:14:03;1.85;;;1.00;;
66087;SDS011;52872;52.994;6.940;2023-04-24T14:16:30;2.58;;;1.00;;
66087;SDS011;52872;52.994;6.940;2023-04-24T14:18:58;2.47;;;0.90;;
66087;SDS011;52872;52.994;6.940;2023-04-24T14:21:25;2.30;;;1.40;;
66087;SDS011;52872;52.994;6.940;2023-04-24T14:23:51;2.03;;;1.08;;
66087;SDS011;52872;52.994;6.940;2023-04-24T14:26:19;2.08;;;1.33;;
66087;SDS011;52872;52.994;6.940;2023-04-24T14:28:46;2.13;;;0.90;;
66087;SDS011;52872;52.994;6.940;2023-04-24T14:31:16;1.55;;;0.90;;
66087;SDS011;52872;52.994;6.940;2023-04-24T14:33:43;2.25;;;1.10;;
66087;SDS011;52872;52.994;6.940;2023-04-24T14:36:10;1.15;;;1.00;;
66087;SDS011;52872;52.994;6.940;2023-04-24T14:38:37;1.95;;;1.17;;
66087;SDS011;52872;52.994;6.940;2023-04-24T14:41:04;1.88;;;1.00;;
66087;SDS011;52872;52.994;6.940;2023-04-24T14:43:39;2.20;;;1.00;;
66087;SDS011;52872;52.994;6.940;2023-04-24T14:46:06;5.03;;;1.40;;
66087;SDS011;52872;52.994;6.940;2023-04-24T14:48:33;3.40;;;1.58;;
66087;SDS011;52872;52.994;6.940;2023-04-24T14:51:00;2.60;;;1.67;;
66087;SDS011;52872;52.994;6.940;2023-04-24T14:53:27;3.90;;;1.38;;
66087;SDS011;52872;52.994;6.940;2023-04-24T14:55:54;3.15;;;1.40;;
66087;SDS011;52872;52.994;6.940;2023-04-24T14:58:21;5.18;;;1.88;;
66087;SDS011;52872;52.994;6.940;2023-04-24T15:00:48;3.45;;;1.67;;
66087;SDS011;52872;52.994;6.940;2023-04-24T15:03:19;4.18;;;1.63;;
66087;SDS011;52872;52.994;6.940;2023-04-24T15:05:47;3.58;;;1.48;;
66087;SDS011;52872;52.994;6.940;2023-04-24T15:08:14;5.68;;;2.70;;
66087;SDS011;52872;52.994;6.940;2023-04-24T15:10:41;4.68;;;2.20;;
66087;SDS011;52872;52.994;6.940;2023-04-24T15:13:08;5.57;;;1.77;;
66087;SDS011;52872;52.994;6.940;2023-04-24T15:15:35;11.80;;;2.10;;
66087;SDS011;52872;52.994;6.940;2023-04-24T15:18:03;6.78;;;2.22;;